Roduco, North Carolina
Current Conditions -  °F | °C
As of 12:35 AM on Tuesday 27 Jan 2015 (Local Time) from KFKN Reporting Station
Light Snow Light Snow  
Wind Chill: 25°   Ceiling: 900
Heat Index: 33°   Visibility: 7mi
Dew Point: 31°   Wind: 10mph
Humidity: 93%   Direction: 340°NNW
Pressure: 29.67"   Gusts: 16mph
Location:  36.46°N, 76.81°W
Report Text: KFKN 270535Z AUTO 34009G14KT 7SM -SN BKN009 OVC013 01/00 A2967 RMK AO2 T00061004
Loading
Personal Weather Stations






























Interactive Weather Map New forecast layout! Learn more

10-Day Weather Forecast

Advertisements
Track Severe Weather on mobile